sensor_id;sensor_type;location;lat;lon;timestamp;P1;durP1;ratioP1;P2;durP2;ratioP2
7783;SDS011;19359;51.402;6.778;2023-08-12T00:00:47;793.28;;;604.03;;
7783;SDS011;19359;51.402;6.778;2023-08-12T00:03:13;797.15;;;620.63;;
7783;SDS011;19359;51.402;6.778;2023-08-12T00:05:40;793.60;;;623.85;;
7783;SDS011;19359;51.402;6.778;2023-08-12T00:08:09;791.13;;;613.20;;
7783;SDS011;19359;51.402;6.778;2023-08-12T00:10:35;792.92;;;612.58;;
7783;SDS011;19359;51.402;6.778;2023-08-12T00:13:03;792.33;;;605.28;;
7783;SDS011;19359;51.402;6.778;2023-08-12T00:15:30;791.97;;;606.80;;
7783;SDS011;19359;51.402;6.778;2023-08-12T00:17:57;793.50;;;612.85;;
7783;SDS011;19359;51.402;6.778;2023-08-12T00:20:24;790.50;;;601.30;;
7783;SDS011;19359;51.402;6.778;2023-08-12T00:22:51;798.20;;;624.65;;
7783;SDS011;19359;51.402;6.778;2023-08-12T00:25:18;791.67;;;613.85;;
7783;SDS011;19359;51.402;6.778;2023-08-12T00:27:45;797.90;;;613.65;;
7783;SDS011;19359;51.402;6.778;2023-08-12T00:30:14;795.10;;;610.05;;
7783;SDS011;19359;51.402;6.778;2023-08-12T00:32:41;796.13;;;599.55;;
7783;SDS011;19359;51.402;6.778;2023-08-12T00:35:08;792.17;;;603.75;;
7783;SDS011;19359;51.402;6.778;2023-08-12T00:37:35;779.92;;;586.20;;
7783;SDS011;19359;51.402;6.778;2023-08-12T00:40:02;781.13;;;590.00;;
7783;SDS011;19359;51.402;6.778;2023-08-12T00:42:30;792.40;;;592.83;;
7783;SDS011;19359;51.402;6.778;2023-08-12T00:44:57;783.47;;;598.47;;
7783;SDS011;19359;51.402;6.778;2023-08-12T00:47:26;782.40;;;584.90;;
7783;SDS011;19359;51.402;6.778;2023-08-12T00:49:55;796.75;;;603.83;;
7783;SDS011;19359;51.402;6.778;2023-08-12T00:52:23;789.17;;;594.08;;
7783;SDS011;19359;51.402;6.778;2023-08-12T00:54:50;742.72;;;606.53;;
7783;SDS011;19359;51.402;6.778;2023-08-12T00:57:17;769.78;;;595.70;;
7783;SDS011;19359;51.402;6.778;2023-08-12T00:59:44;790.70;;;607.03;;
7783;SDS011;19359;51.402;6.778;2023-08-12T01:02:11;787.95;;;595.90;;
7783;SDS011;19359;51.402;6.778;2023-08-12T01:04:40;782.83;;;592.88;;
7783;SDS011;19359;51.402;6.778;2023-08-12T01:07:06;780.55;;;588.45;;
7783;SDS011;19359;51.402;6.778;2023-08-12T01:09:33;783.45;;;601.72;;
7783;SDS011;19359;51.402;6.778;2023-08-12T01:12:01;778.42;;;578.80;;
7783;SDS011;19359;51.402;6.778;2023-08-12T01:14:33;778.40;;;580.17;;
7783;SDS011;19359;51.402;6.778;2023-08-12T01:17:08;787.47;;;579.58;;
7783;SDS011;19359;51.402;6.778;2023-08-12T01:19:38;684.30;;;609.28;;
7783;SDS011;19359;51.402;6.778;2023-08-12T01:22:08;678.90;;;608.20;;
7783;SDS011;19359;51.402;6.778;2023-08-12T01:24:37;685.40;;;614.83;;
7783;SDS011;19359;51.402;6.778;2023-08-12T01:27:04;665.58;;;597.75;;
7783;SDS011;19359;51.402;6.778;2023-08-12T01:29:32;663.72;;;598.75;;
7783;SDS011;19359;51.402;6.778;2023-08-12T01:32:02;672.97;;;607.17;;
7783;SDS011;19359;51.402;6.778;2023-08-12T01:34:34;663.90;;;599.25;;
7783;SDS011;19359;51.402;6.778;2023-08-12T01:37:08;654.85;;;589.92;;
7783;SDS011;19359;51.402;6.778;2023-08-12T01:39:41;679.58;;;611.10;;
7783;SDS011;19359;51.402;6.778;2023-08-12T01:42:09;664.63;;;598.55;;
7783;SDS011;19359;51.402;6.778;2023-08-12T01:44:37;672.60;;;605.05;;
7783;SDS011;19359;51.402;6.778;2023-08-12T01:47:04;664.47;;;597.90;;
7783;SDS011;19359;51.402;6.778;2023-08-12T01:49:31;667.70;;;601.90;;
7783;SDS011;19359;51.402;6.778;2023-08-12T01:51:58;670.00;;;602.60;;
7783;SDS011;19359;51.402;6.778;2023-08-12T01:54:24;664.63;;;599.25;;
7783;SDS011;19359;51.402;6.778;2023-08-12T01:56:53;667.85;;;602.30;;
7783;SDS011;19359;51.402;6.778;2023-08-12T01:59:20;667.42;;;599.97;;
7783;SDS011;19359;51.402;6.778;2023-08-12T02:01:47;667.17;;;600.00;;
7783;SDS011;19359;51.402;6.778;2023-08-12T02:04:13;676.90;;;609.85;;
7783;SDS011;19359;51.402;6.778;2023-08-12T02:06:40;664.30;;;597.95;;
7783;SDS011;19359;51.402;6.778;2023-08-12T02:09:07;666.80;;;600.45;;
7783;SDS011;19359;51.402;6.778;2023-08-12T02:11:34;669.33;;;601.72;;
7783;SDS011;19359;51.402;6.778;2023-08-12T02:14:02;665.35;;;599.03;;
7783;SDS011;19359;51.402;6.778;2023-08-12T02:16:28;674.28;;;606.30;;
7783;SDS011;19359;51.402;6.778;2023-08-12T02:18:56;662.70;;;594.80;;
7783;SDS011;19359;51.402;6.778;2023-08-12T02:21:22;676.85;;;608.10;;
7783;SDS011;19359;51.402;6.778;2023-08-12T02:23:49;669.28;;;602.22;;
7783;SDS011;19359;51.402;6.778;2023-08-12T02:26:16;661.53;;;595.83;;
7783;SDS011;19359;51.402;6.778;2023-08-12T02:28:43;668.63;;;602.25;;
7783;SDS011;19359;51.402;6.778;2023-08-12T02:31:12;665.13;;;601.30;;
7783;SDS011;19359;51.402;6.778;2023-08-12T02:33:39;656.15;;;591.45;;
7783;SDS011;19359;51.402;6.778;2023-08-12T02:36:06;653.40;;;590.30;;
7783;SDS011;19359;51.402;6.778;2023-08-12T02:38:32;665.05;;;600.67;;
7783;SDS011;19359;51.402;6.778;2023-08-12T02:40:59;670.08;;;604.92;;
7783;SDS011;19359;51.402;6.778;2023-08-12T02:43:26;660.63;;;595.70;;
7783;SDS011;19359;51.402;6.778;2023-08-12T02:45:53;665.67;;;600.17;;
7783;SDS011;19359;51.402;6.778;2023-08-12T02:48:21;662.53;;;595.50;;
7783;SDS011;19359;51.402;6.778;2023-08-12T02:50:48;665.58;;;598.63;;
7783;SDS011;19359;51.402;6.778;2023-08-12T02:53:15;659.60;;;591.85;;
7783;SDS011;19359;51.402;6.778;2023-08-12T02:55:44;667.72;;;602.83;;
7783;SDS011;19359;51.402;6.778;2023-08-12T02:58:11;656.88;;;591.80;;
7783;SDS011;19359;51.402;6.778;2023-08-12T03:00:40;666.50;;;601.53;;
7783;SDS011;19359;51.402;6.778;2023-08-12T03:03:08;659.83;;;594.08;;
7783;SDS011;19359;51.402;6.778;2023-08-12T03:05:36;664.92;;;597.17;;
7783;SDS011;19359;51.402;6.778;2023-08-12T03:08:04;648.28;;;581.97;;
7783;SDS011;19359;51.402;6.778;2023-08-12T03:10:31;656.30;;;590.65;;
7783;SDS011;19359;51.402;6.778;2023-08-12T03:12:59;648.20;;;582.67;;
7783;SDS011;19359;51.402;6.778;2023-08-12T03:15:26;655.63;;;588.10;;
7783;SDS011;19359;51.402;6.778;2023-08-12T03:17:53;654.65;;;587.17;;
7783;SDS011;19359;51.402;6.778;2023-08-12T03:20:19;649.75;;;584.15;;
7783;SDS011;19359;51.402;6.778;2023-08-12T03:22:48;642.90;;;577.97;;
7783;SDS011;19359;51.402;6.778;2023-08-12T03:25:14;631.20;;;567.55;;
7783;SDS011;19359;51.402;6.778;2023-08-12T03:27:42;635.40;;;571.97;;
7783;SDS011;19359;51.402;6.778;2023-08-12T03:30:09;641.63;;;576.03;;
7783;SDS011;19359;51.402;6.778;2023-08-12T03:32:36;632.97;;;568.90;;
7783;SDS011;19359;51.402;6.778;2023-08-12T03:35:04;629.05;;;566.88;;
7783;SDS011;19359;51.402;6.778;2023-08-12T03:37:31;645.35;;;580.10;;
7783;SDS011;19359;51.402;6.778;2023-08-12T03:39:59;646.22;;;580.47;;
7783;SDS011;19359;51.402;6.778;2023-08-12T03:42:26;659.90;;;592.63;;
7783;SDS011;19359;51.402;6.778;2023-08-12T03:44:52;637.22;;;573.17;;
7783;SDS011;19359;51.402;6.778;2023-08-12T03:47:20;633.47;;;566.75;;
7783;SDS011;19359;51.402;6.778;2023-08-12T03:49:49;636.08;;;568.47;;
7783;SDS011;19359;51.402;6.778;2023-08-12T03:52:16;640.20;;;571.30;;
7783;SDS011;19359;51.402;6.778;2023-08-12T03:54:43;631.60;;;566.22;;
7783;SDS011;19359;51.402;6.778;2023-08-12T03:57:11;644.10;;;576.58;;
7783;SDS011;19359;51.402;6.778;2023-08-12T03:59:38;651.45;;;586.42;;
7783;SDS011;19359;51.402;6.778;2023-08-12T04:02:05;639.95;;;574.22;;
7783;SDS011;19359;51.402;6.778;2023-08-12T04:04:32;640.25;;;571.78;;
7783;SDS011;19359;51.402;6.778;2023-08-12T04:06:59;648.35;;;582.08;;
7783;SDS011;19359;51.402;6.778;2023-08-12T04:09:26;636.60;;;569.75;;
7783;SDS011;19359;51.402;6.778;2023-08-12T04:11:53;666.63;;;594.90;;
7783;SDS011;19359;51.402;6.778;2023-08-12T04:14:21;633.97;;;564.20;;
7783;SDS011;19359;51.402;6.778;2023-08-12T04:16:48;640.10;;;572.83;;
7783;SDS011;19359;51.402;6.778;2023-08-12T04:19:16;627.80;;;560.78;;
7783;SDS011;19359;51.402;6.778;2023-08-12T04:21:43;637.90;;;571.13;;
7783;SDS011;19359;51.402;6.778;2023-08-12T04:24:11;635.30;;;568.88;;
7783;SDS011;19359;51.402;6.778;2023-08-12T04:26:38;645.67;;;577.47;;
7783;SDS011;19359;51.402;6.778;2023-08-12T04:29:06;634.90;;;569.00;;
7783;SDS011;19359;51.402;6.778;2023-08-12T04:31:34;640.70;;;572.65;;
7783;SDS011;19359;51.402;6.778;2023-08-12T04:34:01;638.88;;;572.00;;
7783;SDS011;19359;51.402;6.778;2023-08-12T04:36:29;638.28;;;568.95;;
7783;SDS011;19359;51.402;6.778;2023-08-12T04:38:56;645.33;;;575.65;;
7783;SDS011;19359;51.402;6.778;2023-08-12T04:41:23;646.78;;;576.28;;
7783;SDS011;19359;51.402;6.778;2023-08-12T04:43:50;638.78;;;568.63;;
7783;SDS011;19359;51.402;6.778;2023-08-12T04:46:17;654.80;;;584.70;;
7783;SDS011;19359;51.402;6.778;2023-08-12T04:48:46;651.15;;;575.70;;
7783;SDS011;19359;51.402;6.778;2023-08-12T04:51:12;650.42;;;579.33;;
7783;SDS011;19359;51.402;6.778;2023-08-12T04:53:40;650.25;;;575.28;;
7783;SDS011;19359;51.402;6.778;2023-08-12T04:56:06;668.05;;;586.13;;
7783;SDS011;19359;51.402;6.778;2023-08-12T04:58:33;692.15;;;601.03;;
7783;SDS011;19359;51.402;6.778;2023-08-12T05:01:01;657.30;;;581.38;;
7783;SDS011;19359;51.402;6.778;2023-08-12T05:03:28;663.88;;;581.88;;
7783;SDS011;19359;51.402;6.778;2023-08-12T05:05:56;669.10;;;591.58;;
7783;SDS011;19359;51.402;6.778;2023-08-12T05:08:23;661.08;;;573.65;;
7783;SDS011;19359;51.402;6.778;2023-08-12T05:10:50;659.10;;;580.67;;
7783;SDS011;19359;51.402;6.778;2023-08-12T05:13:17;658.88;;;578.95;;
7783;SDS011;19359;51.402;6.778;2023-08-12T05:15:45;652.33;;;579.50;;
7783;SDS011;19359;51.402;6.778;2023-08-12T05:18:12;638.80;;;569.33;;
7783;SDS011;19359;51.402;6.778;2023-08-12T05:20:39;645.95;;;571.83;;
7783;SDS011;19359;51.402;6.778;2023-08-12T05:23:08;659.05;;;581.03;;
7783;SDS011;19359;51.402;6.778;2023-08-12T05:25:35;664.40;;;574.25;;
7783;SDS011;19359;51.402;6.778;2023-08-12T05:28:02;667.63;;;575.05;;
7783;SDS011;19359;51.402;6.778;2023-08-12T05:30:29;670.63;;;573.55;;
7783;SDS011;19359;51.402;6.778;2023-08-12T05:32:56;678.63;;;575.15;;
7783;SDS011;19359;51.402;6.778;2023-08-12T05:35:23;666.20;;;565.13;;
7783;SDS011;19359;51.402;6.778;2023-08-12T05:37:50;663.65;;;575.83;;
7783;SDS011;19359;51.402;6.778;2023-08-12T05:40:18;671.20;;;564.40;;
7783;SDS011;19359;51.402;6.778;2023-08-12T05:42:45;649.33;;;563.45;;
7783;SDS011;19359;51.402;6.778;2023-08-12T05:45:12;652.20;;;586.33;;
7783;SDS011;19359;51.402;6.778;2023-08-12T05:47:39;635.00;;;570.17;;
7783;SDS011;19359;51.402;6.778;2023-08-12T05:50:06;646.33;;;580.17;;
7783;SDS011;19359;51.402;6.778;2023-08-12T05:52:33;650.58;;;582.88;;
7783;SDS011;19359;51.402;6.778;2023-08-12T05:55:00;650.67;;;583.78;;
7783;SDS011;19359;51.402;6.778;2023-08-12T05:57:28;665.20;;;594.67;;
7783;SDS011;19359;51.402;6.778;2023-08-12T05:59:55;646.67;;;578.90;;
7783;SDS011;19359;51.402;6.778;2023-08-12T06:02:22;645.13;;;577.40;;
7783;SDS011;19359;51.402;6.778;2023-08-12T06:04:49;650.17;;;582.22;;
7783;SDS011;19359;51.402;6.778;2023-08-12T06:07:16;654.75;;;586.53;;
7783;SDS011;19359;51.402;6.778;2023-08-12T06:09:43;659.55;;;593.38;;
7783;SDS011;19359;51.402;6.778;2023-08-12T06:12:10;647.75;;;579.88;;
7783;SDS011;19359;51.402;6.778;2023-08-12T06:14:39;638.05;;;575.78;;
7783;SDS011;19359;51.402;6.778;2023-08-12T06:17:06;632.83;;;568.55;;
7783;SDS011;19359;51.402;6.778;2023-08-12T06:19:33;630.40;;;567.03;;
7783;SDS011;19359;51.402;6.778;2023-08-12T06:21:59;631.58;;;567.50;;
7783;SDS011;19359;51.402;6.778;2023-08-12T06:24:28;651.60;;;583.17;;
7783;SDS011;19359;51.402;6.778;2023-08-12T06:26:55;637.60;;;570.15;;
7783;SDS011;19359;51.402;6.778;2023-08-12T06:29:22;637.95;;;571.40;;
7783;SDS011;19359;51.402;6.778;2023-08-12T06:31:51;648.58;;;580.25;;
7783;SDS011;19359;51.402;6.778;2023-08-12T06:34:18;650.10;;;582.20;;
7783;SDS011;19359;51.402;6.778;2023-08-12T06:36:46;641.63;;;576.58;;
7783;SDS011;19359;51.402;6.778;2023-08-12T06:39:13;638.25;;;572.05;;
7783;SDS011;19359;51.402;6.778;2023-08-12T06:41:40;631.88;;;565.63;;
7783;SDS011;19359;51.402;6.778;2023-08-12T06:44:07;638.55;;;570.83;;
7783;SDS011;19359;51.402;6.778;2023-08-12T06:46:34;631.35;;;567.45;;
7783;SDS011;19359;51.402;6.778;2023-08-12T06:49:02;625.45;;;563.20;;
7783;SDS011;19359;51.402;6.778;2023-08-12T06:51:30;623.85;;;559.83;;
7783;SDS011;19359;51.402;6.778;2023-08-12T06:53:57;638.95;;;574.70;;
7783;SDS011;19359;51.402;6.778;2023-08-12T06:56:24;623.08;;;560.95;;
7783;SDS011;19359;51.402;6.778;2023-08-12T06:58:51;643.42;;;578.40;;
7783;SDS011;19359;51.402;6.778;2023-08-12T07:01:18;650.50;;;583.95;;
7783;SDS011;19359;51.402;6.778;2023-08-12T07:03:45;662.28;;;594.42;;
7783;SDS011;19359;51.402;6.778;2023-08-12T07:06:14;647.30;;;578.92;;
7783;SDS011;19359;51.402;6.778;2023-08-12T07:08:42;640.90;;;572.60;;
7783;SDS011;19359;51.402;6.778;2023-08-12T07:11:09;651.28;;;582.30;;
7783;SDS011;19359;51.402;6.778;2023-08-12T07:13:36;644.20;;;578.35;;
7783;SDS011;19359;51.402;6.778;2023-08-12T07:16:03;635.38;;;568.88;;
7783;SDS011;19359;51.402;6.778;2023-08-12T07:18:30;657.55;;;589.15;;
7783;SDS011;19359;51.402;6.778;2023-08-12T07:20:57;641.55;;;575.83;;
7783;SDS011;19359;51.402;6.778;2023-08-12T07:23:26;655.15;;;588.35;;
7783;SDS011;19359;51.402;6.778;2023-08-12T07:25:53;641.78;;;575.75;;
7783;SDS011;19359;51.402;6.778;2023-08-12T07:28:20;664.88;;;592.95;;
7783;SDS011;19359;51.402;6.778;2023-08-12T07:30:47;667.85;;;597.58;;
7783;SDS011;19359;51.402;6.778;2023-08-12T07:33:15;655.70;;;585.17;;
7783;SDS011;19359;51.402;6.778;2023-08-12T07:35:42;654.72;;;579.92;;
7783;SDS011;19359;51.402;6.778;2023-08-12T07:38:09;690.00;;;597.42;;
7783;SDS011;19359;51.402;6.778;2023-08-12T07:40:37;677.17;;;601.83;;
7783;SDS011;19359;51.402;6.778;2023-08-12T07:43:04;760.22;;;588.97;;
7783;SDS011;19359;51.402;6.778;2023-08-12T07:45:32;774.80;;;591.88;;
7783;SDS011;19359;51.402;6.778;2023-08-12T07:47:59;760.33;;;582.35;;
7783;SDS011;19359;51.402;6.778;2023-08-12T07:50:26;764.38;;;579.70;;
7783;SDS011;19359;51.402;6.778;2023-08-12T07:52:53;767.72;;;578.85;;
7783;SDS011;19359;51.402;6.778;2023-08-12T07:55:20;770.85;;;574.38;;
7783;SDS011;19359;51.402;6.778;2023-08-12T07:57:48;764.22;;;583.00;;
7783;SDS011;19359;51.402;6.778;2023-08-12T08:00:16;782.08;;;612.03;;
7783;SDS011;19359;51.402;6.778;2023-08-12T08:02:43;768.95;;;585.72;;
7783;SDS011;19359;51.402;6.778;2023-08-12T08:05:10;771.35;;;589.42;;
7783;SDS011;19359;51.402;6.778;2023-08-12T08:07:37;776.67;;;593.63;;
7783;SDS011;19359;51.402;6.778;2023-08-12T08:10:05;773.15;;;589.25;;
7783;SDS011;19359;51.402;6.778;2023-08-12T08:12:32;770.88;;;595.38;;
7783;SDS011;19359;51.402;6.778;2023-08-12T08:15:00;782.08;;;613.58;;
7783;SDS011;19359;51.402;6.778;2023-08-12T08:17:28;778.45;;;597.03;;
7783;SDS011;19359;51.402;6.778;2023-08-12T08:19:55;782.55;;;604.85;;
7783;SDS011;19359;51.402;6.778;2023-08-12T08:22:22;780.30;;;607.05;;
7783;SDS011;19359;51.402;6.778;2023-08-12T08:24:49;784.33;;;602.53;;
7783;SDS011;19359;51.402;6.778;2023-08-12T08:27:16;770.38;;;565.17;;
7783;SDS011;19359;51.402;6.778;2023-08-12T08:29:43;779.83;;;596.75;;
7783;SDS011;19359;51.402;6.778;2023-08-12T08:32:12;776.95;;;602.08;;
7783;SDS011;19359;51.402;6.778;2023-08-12T08:34:38;774.28;;;598.42;;
7783;SDS011;19359;51.402;6.778;2023-08-12T08:37:05;775.28;;;595.83;;
7783;SDS011;19359;51.402;6.778;2023-08-12T08:39:32;774.42;;;594.78;;
7783;SDS011;19359;51.402;6.778;2023-08-12T08:42:00;762.58;;;586.00;;
7783;SDS011;19359;51.402;6.778;2023-08-12T08:44:28;756.65;;;609.72;;
7783;SDS011;19359;51.402;6.778;2023-08-12T08:46:56;766.33;;;597.13;;
7783;SDS011;19359;51.402;6.778;2023-08-12T08:49:26;777.50;;;609.72;;
7783;SDS011;19359;51.402;6.778;2023-08-12T08:51:55;779.72;;;611.83;;
7783;SDS011;19359;51.402;6.778;2023-08-12T08:54:22;776.78;;;614.63;;
7783;SDS011;19359;51.402;6.778;2023-08-12T08:56:49;784.30;;;618.83;;
7783;SDS011;19359;51.402;6.778;2023-08-12T08:59:16;795.55;;;636.92;;
7783;SDS011;19359;51.402;6.778;2023-08-12T09:01:43;792.33;;;621.33;;
7783;SDS011;19359;51.402;6.778;2023-08-12T09:04:13;797.97;;;629.28;;
7783;SDS011;19359;51.402;6.778;2023-08-12T09:06:43;781.83;;;602.92;;
7783;SDS011;19359;51.402;6.778;2023-08-12T09:09:12;785.95;;;615.67;;
7783;SDS011;19359;51.402;6.778;2023-08-12T09:11:40;767.78;;;597.60;;
7783;SDS011;19359;51.402;6.778;2023-08-12T09:14:09;770.88;;;596.53;;
7783;SDS011;19359;51.402;6.778;2023-08-12T09:16:36;774.25;;;610.50;;
7783;SDS011;19359;51.402;6.778;2023-08-12T09:19:03;782.83;;;610.85;;
7783;SDS011;19359;51.402;6.778;2023-08-12T09:21:30;780.25;;;600.33;;
7783;SDS011;19359;51.402;6.778;2023-08-12T09:23:58;760.75;;;588.83;;
7783;SDS011;19359;51.402;6.778;2023-08-12T09:26:29;760.47;;;588.80;;
7783;SDS011;19359;51.402;6.778;2023-08-12T09:28:56;761.90;;;594.97;;
7783;SDS011;19359;51.402;6.778;2023-08-12T09:31:26;765.83;;;591.83;;
7783;SDS011;19359;51.402;6.778;2023-08-12T09:33:54;766.13;;;593.63;;
7783;SDS011;19359;51.402;6.778;2023-08-12T09:36:24;769.08;;;591.45;;
7783;SDS011;19359;51.402;6.778;2023-08-12T09:38:51;705.10;;;587.03;;
7783;SDS011;19359;51.402;6.778;2023-08-12T09:41:21;736.10;;;589.55;;
7783;SDS011;19359;51.402;6.778;2023-08-12T09:43:50;742.08;;;589.28;;
7783;SDS011;19359;51.402;6.778;2023-08-12T09:46:17;744.65;;;587.47;;
7783;SDS011;19359;51.402;6.778;2023-08-12T09:48:45;726.45;;;604.97;;
7783;SDS011;19359;51.402;6.778;2023-08-12T09:51:12;722.10;;;594.25;;
7783;SDS011;19359;51.402;6.778;2023-08-12T09:53:39;692.42;;;598.00;;
7783;SDS011;19359;51.402;6.778;2023-08-12T09:56:08;698.22;;;589.72;;
7783;SDS011;19359;51.402;6.778;2023-08-12T09:58:39;707.58;;;576.42;;
7783;SDS011;19359;51.402;6.778;2023-08-12T10:01:08;737.42;;;596.17;;
7783;SDS011;19359;51.402;6.778;2023-08-12T10:03:36;749.28;;;591.83;;
7783;SDS011;19359;51.402;6.778;2023-08-12T10:06:03;748.88;;;588.88;;
7783;SDS011;19359;51.402;6.778;2023-08-12T10:08:31;758.60;;;586.70;;
7783;SDS011;19359;51.402;6.778;2023-08-12T10:10:59;720.03;;;585.78;;
7783;SDS011;19359;51.402;6.778;2023-08-12T10:13:26;732.60;;;594.20;;
7783;SDS011;19359;51.402;6.778;2023-08-12T10:15:54;700.17;;;594.13;;
7783;SDS011;19359;51.402;6.778;2023-08-12T10:18:21;696.28;;;593.33;;
7783;SDS011;19359;51.402;6.778;2023-08-12T10:20:50;715.78;;;580.88;;
7783;SDS011;19359;51.402;6.778;2023-08-12T10:23:20;699.80;;;573.83;;
7783;SDS011;19359;51.402;6.778;2023-08-12T10:25:48;664.72;;;577.85;;
7783;SDS011;19359;51.402;6.778;2023-08-12T10:28:19;711.88;;;580.90;;
7783;SDS011;19359;51.402;6.778;2023-08-12T10:30:46;746.92;;;585.42;;
7783;SDS011;19359;51.402;6.778;2023-08-12T10:33:15;777.40;;;600.65;;
7783;SDS011;19359;51.402;6.778;2023-08-12T10:35:43;767.90;;;593.08;;
7783;SDS011;19359;51.402;6.778;2023-08-12T10:38:13;783.55;;;601.50;;
7783;SDS011;19359;51.402;6.778;2023-08-12T10:40:43;769.55;;;603.33;;
7783;SDS011;19359;51.402;6.778;2023-08-12T10:43:11;780.60;;;613.22;;
7783;SDS011;19359;51.402;6.778;2023-08-12T10:45:41;753.58;;;603.17;;
7783;SDS011;19359;51.402;6.778;2023-08-12T10:48:11;744.90;;;600.13;;
7783;SDS011;19359;51.402;6.778;2023-08-12T10:50:44;716.67;;;586.80;;
7783;SDS011;19359;51.402;6.778;2023-08-12T10:53:24;740.60;;;599.22;;
7783;SDS011;19359;51.402;6.778;2023-08-12T10:55:56;744.13;;;592.45;;
7783;SDS011;19359;51.402;6.778;2023-08-12T10:58:25;747.05;;;587.22;;
7783;SDS011;19359;51.402;6.778;2023-08-12T11:00:53;753.25;;;580.50;;
7783;SDS011;19359;51.402;6.778;2023-08-12T11:03:21;768.72;;;599.83;;
7783;SDS011;19359;51.402;6.778;2023-08-12T11:05:49;788.25;;;612.15;;
7783;SDS011;19359;51.402;6.778;2023-08-12T11:08:22;787.30;;;612.92;;
7783;SDS011;19359;51.402;6.778;2023-08-12T11:10:52;760.13;;;592.13;;
7783;SDS011;19359;51.402;6.778;2023-08-12T11:13:21;767.35;;;600.00;;
7783;SDS011;19359;51.402;6.778;2023-08-12T11:15:48;776.42;;;607.22;;
7783;SDS011;19359;51.402;6.778;2023-08-12T11:18:15;784.00;;;612.05;;
7783;SDS011;19359;51.402;6.778;2023-08-12T11:20:43;759.35;;;600.85;;
7783;SDS011;19359;51.402;6.778;2023-08-12T11:23:12;779.90;;;610.95;;
7783;SDS011;19359;51.402;6.778;2023-08-12T11:25:39;768.58;;;611.42;;
7783;SDS011;19359;51.402;6.778;2023-08-12T11:28:09;780.83;;;622.72;;
7783;SDS011;19359;51.402;6.778;2023-08-12T11:30:36;792.67;;;635.60;;
7783;SDS011;19359;51.402;6.778;2023-08-12T11:33:03;776.70;;;613.50;;
7783;SDS011;19359;51.402;6.778;2023-08-12T11:35:30;774.50;;;621.53;;
7783;SDS011;19359;51.402;6.778;2023-08-12T11:37:58;787.28;;;636.65;;
7783;SDS011;19359;51.402;6.778;2023-08-12T11:40:27;789.88;;;636.78;;
7783;SDS011;19359;51.402;6.778;2023-08-12T11:42:54;797.15;;;643.30;;
7783;SDS011;19359;51.402;6.778;2023-08-12T11:45:22;793.78;;;635.17;;
7783;SDS011;19359;51.402;6.778;2023-08-12T11:47:50;791.35;;;643.58;;
7783;SDS011;19359;51.402;6.778;2023-08-12T11:50:19;786.97;;;628.42;;
7783;SDS011;19359;51.402;6.778;2023-08-12T11:52:46;791.17;;;633.05;;
7783;SDS011;19359;51.402;6.778;2023-08-12T11:55:14;791.67;;;629.13;;
7783;SDS011;19359;51.402;6.778;2023-08-12T11:57:42;771.85;;;596.45;;
7783;SDS011;19359;51.402;6.778;2023-08-12T12:00:10;791.17;;;622.75;;
7783;SDS011;19359;51.402;6.778;2023-08-12T12:02:40;793.38;;;600.70;;
7783;SDS011;19359;51.402;6.778;2023-08-12T12:05:08;792.95;;;599.28;;
7783;SDS011;19359;51.402;6.778;2023-08-12T12:07:37;785.38;;;592.60;;
7783;SDS011;19359;51.402;6.778;2023-08-12T12:10:04;783.58;;;591.35;;
7783;SDS011;19359;51.402;6.778;2023-08-12T12:12:32;780.50;;;594.63;;
7783;SDS011;19359;51.402;6.778;2023-08-12T12:15:02;762.58;;;567.00;;
7783;SDS011;19359;51.402;6.778;2023-08-12T12:17:29;765.45;;;577.65;;
7783;SDS011;19359;51.402;6.778;2023-08-12T12:19:58;762.03;;;568.47;;
7783;SDS011;19359;51.402;6.778;2023-08-12T12:22:26;765.78;;;574.13;;
7783;SDS011;19359;51.402;6.778;2023-08-12T12:24:54;748.28;;;541.05;;
7783;SDS011;19359;51.402;6.778;2023-08-12T12:27:21;772.92;;;578.08;;
7783;SDS011;19359;51.402;6.778;2023-08-12T12:29:48;775.17;;;582.65;;
7783;SDS011;19359;51.402;6.778;2023-08-12T12:32:17;774.35;;;584.08;;
7783;SDS011;19359;51.402;6.778;2023-08-12T12:34:45;776.53;;;591.90;;
7783;SDS011;19359;51.402;6.778;2023-08-12T12:37:12;778.45;;;599.50;;
7783;SDS011;19359;51.402;6.778;2023-08-12T12:39:39;776.53;;;604.35;;
7783;SDS011;19359;51.402;6.778;2023-08-12T12:42:06;772.88;;;599.95;;
7783;SDS011;19359;51.402;6.778;2023-08-12T12:44:34;783.67;;;607.15;;
7783;SDS011;19359;51.402;6.778;2023-08-12T12:47:01;770.58;;;587.83;;
7783;SDS011;19359;51.402;6.778;2023-08-12T12:49:30;781.00;;;607.00;;
7783;SDS011;19359;51.402;6.778;2023-08-12T12:51:57;768.90;;;596.60;;
7783;SDS011;19359;51.402;6.778;2023-08-12T12:54:24;759.72;;;561.20;;
7783;SDS011;19359;51.402;6.778;2023-08-12T12:56:51;790.92;;;619.00;;
7783;SDS011;19359;51.402;6.778;2023-08-12T12:59:18;793.85;;;625.30;;
7783;SDS011;19359;51.402;6.778;2023-08-12T13:01:45;795.08;;;638.28;;
7783;SDS011;19359;51.402;6.778;2023-08-12T13:04:12;793.92;;;635.78;;
7783;SDS011;19359;51.402;6.778;2023-08-12T13:06:41;796.88;;;641.17;;
7783;SDS011;19359;51.402;6.778;2023-08-12T13:09:08;816.95;;;662.05;;
7783;SDS011;19359;51.402;6.778;2023-08-12T13:11:35;818.70;;;663.92;;
7783;SDS011;19359;51.402;6.778;2023-08-12T13:14:02;818.65;;;664.45;;
7783;SDS011;19359;51.402;6.778;2023-08-12T13:16:29;809.03;;;652.33;;
7783;SDS011;19359;51.402;6.778;2023-08-12T13:18:57;807.25;;;656.45;;
7783;SDS011;19359;51.402;6.778;2023-08-12T13:21:24;807.78;;;661.92;;
7783;SDS011;19359;51.402;6.778;2023-08-12T13:23:53;800.83;;;649.05;;
7783;SDS011;19359;51.402;6.778;2023-08-12T13:26:21;794.80;;;629.42;;
7783;SDS011;19359;51.402;6.778;2023-08-12T13:28:48;807.88;;;645.50;;
7783;SDS011;19359;51.402;6.778;2023-08-12T13:31:15;777.35;;;611.70;;
7783;SDS011;19359;51.402;6.778;2023-08-12T13:33:42;767.33;;;599.08;;
7783;SDS011;19359;51.402;6.778;2023-08-12T13:36:09;769.28;;;597.58;;
7783;SDS011;19359;51.402;6.778;2023-08-12T13:38:36;787.60;;;598.70;;
7783;SDS011;19359;51.402;6.778;2023-08-12T13:41:05;787.20;;;603.00;;
7783;SDS011;19359;51.402;6.778;2023-08-12T13:43:32;805.72;;;620.05;;
7783;SDS011;19359;51.402;6.778;2023-08-12T13:46:00;799.60;;;623.50;;
7783;SDS011;19359;51.402;6.778;2023-08-12T13:48:27;828.88;;;654.78;;
7783;SDS011;19359;51.402;6.778;2023-08-12T13:50:54;809.50;;;655.78;;
7783;SDS011;19359;51.402;6.778;2023-08-12T13:53:21;846.47;;;696.92;;
7783;SDS011;19359;51.402;6.778;2023-08-12T13:55:49;831.60;;;693.42;;
7783;SDS011;19359;51.402;6.778;2023-08-12T13:58:18;833.10;;;713.55;;
7783;SDS011;19359;51.402;6.778;2023-08-12T14:00:45;841.08;;;714.38;;
7783;SDS011;19359;51.402;6.778;2023-08-12T14:03:12;841.50;;;721.05;;
7783;SDS011;19359;51.402;6.778;2023-08-12T14:05:39;848.05;;;724.25;;
7783;SDS011;19359;51.402;6.778;2023-08-12T14:08:06;837.70;;;732.08;;
7783;SDS011;19359;51.402;6.778;2023-08-12T14:10:33;859.25;;;763.45;;